Startpagina
METAR-TAF:

METAR-TAF

Vliegvelden :

Natal, Rio Grande do Norte, Brazilië

breedte: 05-55S, lengte: 035-15W, hoogte: 52 m

Actueel weer

Dit bericht is 47 minuten geleden gemaakt, om 12:00 UTC
Wind 12 kt uit het oostzuidoosten
Temperatuur 29°C
Vochtigheid 70%
Druk 1013 hPa
Zicht 10 km of meer
Gebroken wolken op 2300 ft

METAR: SBNT 191200Z 11012KT 9999 BKN023 29/23 Q1013

Tijdstip: 09:47 (12:47 UTC)

Verwachting

Dit bericht is 2 uur en het 47 minuten geleden gemaakt, om 10:00 UTC
Verwachting geldig van 19 om 12 UTC tot 19 om 24 UTC
Wind 10 kt uit het zuidoosten
Zicht 10 km of meer
Gebroken wolken op 2000 ft
Wijzigt naar
van 19 om 14 UTC tot 19 om 17 UTC
Wind 15 kt uit het oostzuidoosten
Verspreide wolken op 3000 ft
Wijzigt naar
van 19 om 21 UTC tot 19 om 23 UTC
Weinig wolken op 1900 ft

TAF: SBNT 191000Z 1912/1924 14010KT 9999 BKN020 TN29/1912Z TX31/1914Z BECMG 1914/1917 11015KT SCT030 BECMG 1921/1923 FEW019 RMK PEH

Waarnemingen en weersverwachtingen van meer dan 4000 vliegvelden (METAR en TAF).

De beschikbare stations zijn de gele en rode punten op de kaart.

Ga met uw muis naar het station om de naam te zien.

Klik dan om waarnemingen en weersverwachtingen te zien.

kaart wijzigen: klik op de groene knoppen met een zwart kruis om in te zoomen, op de groene knop met een streepje om uit te zoomen of op de groene pijlen voor aangrenzende kaarten.


METAR-TAF: